Time;durP1;ratioP1;P1;durP2;ratioP2;P2;SDS_P1;SDS_P2;PMS_P1;PMS_P2;Temp;Humidity;BMP_temperature;BMP_pressure;BME280_temperature;BME280_humidity;BME280_pressure;Samples;Min_cycle;Max_cycle;Signal;HPM_P1;HPM_P2
2021/01/21 00:02:19;;;;;;;12.85;8.45;;;;;;;;;;5096395;28;20199;-66
2021/01/21 00:04:46;;;;;;;13.90;7.90;;;;;;;;;;5097091;28;20191;-66
2021/01/21 00:07:13;;;;;;;11.02;8.38;;;;;;;;;;5096201;28;20199;-66
2021/01/21 00:09:42;;;;;;;9.70;7.40;;;;;;;;;;5096953;28;20283;-66
2021/01/21 00:12:11;;;;;;;8.68;7.50;;;;;;;;;;5096883;28;20293;-66
2021/01/21 00:14:38;;;;;;;8.85;7.28;;;;;;;;;;5095664;28;20642;-66
2021/01/21 00:17:07;;;;;;;11.45;6.95;;;;;;;;;;5097271;28;20199;-66
2021/01/21 00:19:34;;;;;;;10.38;8.10;;;;;;;;;;5097000;28;20199;-65
2021/01/21 00:22:01;;;;;;;8.40;6.75;;;;;;;;;;5096679;28;20187;-64
2021/01/21 00:24:29;;;;;;;10.50;7.85;;;;;;;;;;5096865;28;20187;-66
2021/01/21 00:26:56;;;;;;;9.05;7.00;;;;;;;;;;5078257;28;20265;-66
2021/01/21 00:29:22;;;;;;;8.13;6.38;;;;;;;;;;5097000;28;20202;-66
2021/01/21 00:31:49;;;;;;;9.02;6.47;;;;;;;;;;5096212;28;20211;-66
2021/01/21 00:34:16;;;;;;;11.45;7.68;;;;;;;;;;5096994;28;20183;-66
2021/01/21 00:36:43;;;;;;;8.05;6.10;;;;;;;;;;5096841;28;20577;-66
2021/01/21 00:39:10;;;;;;;8.82;6.80;;;;;;;;;;5096533;28;20256;-66
2021/01/21 00:41:37;;;;;;;8.30;6.47;;;;;;;;;;5096290;28;20187;-66
2021/01/21 00:44:04;;;;;;;8.18;6.43;;;;;;;;;;5095523;28;20227;-66
2021/01/21 00:46:30;;;;;;;7.80;5.78;;;;;;;;;;5077932;28;20203;-66
2021/01/21 00:48:57;;;;;;;8.23;7.00;;;;;;;;;;5096498;28;20218;-66
2021/01/21 00:51:24;;;;;;;14.30;6.75;;;;;;;;;;5096168;28;20199;-65
2021/01/21 00:53:50;;;;;;;9.70;6.88;;;;;;;;;;5095696;28;20367;-66
2021/01/21 00:56:17;;;;;;;9.32;7.32;;;;;;;;;;5096281;28;20199;-66
2021/01/21 00:58:47;;;;;;;13.50;6.82;;;;;;;;;;5096171;28;20222;-64
2021/01/21 01:01:13;;;;;;;7.05;5.93;;;;;;;;;;5096192;28;20651;-64
2021/01/21 01:03:43;;;;;;;8.30;6.32;;;;;;;;;;5078582;28;20203;-64
2021/01/21 01:06:10;;;;;;;7.78;5.65;;;;;;;;;;5096217;28;20195;-65
2021/01/21 01:08:37;;;;;;;7.38;5.30;;;;;;;;;;5095423;28;20573;-65
2021/01/21 01:11:04;;;;;;;10.77;6.35;;;;;;;;;;5095775;28;20205;-65
2021/01/21 01:13:33;;;;;;;9.32;5.47;;;;;;;;;;5078014;28;20195;-64
2021/01/21 01:16:00;;;;;;;5.95;5.35;;;;;;;;;;5080241;28;20202;-65
2021/01/21 01:18:26;;;;;;;6.15;5.47;;;;;;;;;;5095410;28;20227;-65
2021/01/21 01:20:55;;;;;;;8.10;5.70;;;;;;;;;;5095871;28;20658;-65
2021/01/21 01:23:23;;;;;;;7.70;5.47;;;;;;;;;;5095421;28;20195;-65
2021/01/21 01:25:53;;;;;;;6.85;5.53;;;;;;;;;;5095447;28;20193;-65
2021/01/21 01:28:20;;;;;;;6.82;4.93;;;;;;;;;;5095215;28;20211;-65
2021/01/21 01:30:46;;;;;;;9.32;5.38;;;;;;;;;;5076892;28;20230;-65
2021/01/21 01:33:13;;;;;;;10.77;4.88;;;;;;;;;;5095923;28;20196;-65
2021/01/21 01:35:40;;;;;;;5.80;4.57;;;;;;;;;;5095750;28;20191;-65
2021/01/21 01:38:07;;;;;;;5.32;4.55;;;;;;;;;;5095622;28;20211;-65
2021/01/21 01:40:33;;;;;;;11.75;5.50;;;;;;;;;;5095416;28;20191;-65
2021/01/21 01:43:00;;;;;;;5.43;4.97;;;;;;;;;;5095688;28;20539;-65
2021/01/21 01:45:27;;;;;;;7.03;4.47;;;;;;;;;;5093799;28;20225;-65
2021/01/21 01:47:53;;;;;;;6.95;4.32;;;;;;;;;;5095184;28;20239;-65
2021/01/21 01:50:20;;;;;;;6.18;4.63;;;;;;;;;;5076894;28;20200;-65
2021/01/21 01:52:47;;;;;;;7.75;4.35;;;;;;;;;;5094844;28;20231;-65
2021/01/21 01:55:15;;;;;;;8.27;4.60;;;;;;;;;;5093581;28;20280;-65
2021/01/21 01:57:51;;;;;;;6.40;4.50;;;;;;;;;;5095190;28;20615;-65
2021/01/21 02:00:18;;;;;;;6.90;4.30;;;;;;;;;;5095439;28;20590;-65
2021/01/21 02:02:48;;;;;;;3.97;3.67;;;;;;;;;;5094260;28;20257;-65
2021/01/21 02:05:14;;;;;;;5.85;4.05;;;;;;;;;;5095151;28;20210;-65
2021/01/21 02:07:41;;;;;;;6.72;4.70;;;;;;;;;;5094733;28;20199;-65
2021/01/21 02:10:12;;;;;;;5.75;4.05;;;;;;;;;;5094876;28;20639;-65
2021/01/21 02:12:48;;;;;;;7.03;4.07;;;;;;;;;;5094838;28;20191;-65
2021/01/21 02:15:24;;;;;;;3.90;3.60;;;;;;;;;;5093410;28;20596;-65
2021/01/21 02:18:01;;;;;;;7.65;3.88;;;;;;;;;;5094543;28;20219;-65
2021/01/21 02:20:46;;;;;;;5.35;3.63;;;;;;;;;;5094472;28;20182;-65
2021/01/21 02:23:14;;;;;;;6.43;3.70;;;;;;;;;;5094348;28;20290;-65
2021/01/21 02:25:47;;;;;;;4.18;3.50;;;;;;;;;;5094453;28;20561;-65
2021/01/21 02:28:24;;;;;;;7.32;3.85;;;;;;;;;;5094786;28;20207;-65
2021/01/21 02:30:51;;;;;;;7.88;3.75;;;;;;;;;;5094272;28;20210;-65
2021/01/21 02:33:36;;;;;;;4.13;3.80;;;;;;;;;;5094252;28;20215;-65
2021/01/21 02:36:03;;;;;;;5.40;3.47;;;;;;;;;;5094720;28;20199;-65
2021/01/21 02:38:31;;;;;;;3.75;3.38;;;;;;;;;;5094677;28;20211;-65
2021/01/21 02:40:59;;;;;;;6.32;4.38;;;;;;;;;;5094201;28;20290;-65
2021/01/21 02:43:28;;;;;;;5.38;2.70;;;;;;;;;;5094407;28;20191;-65
2021/01/21 02:45:55;;;;;;;3.58;3.03;;;;;;;;;;5092706;28;20272;-65
2021/01/21 02:48:24;;;;;;;3.15;2.78;;;;;;;;;;5093926;28;20226;-65
2021/01/21 02:50:55;;;;;;;4.20;3.80;;;;;;;;;;5094376;28;20206;-65
2021/01/21 02:53:22;;;;;;;3.35;3.05;;;;;;;;;;5094141;28;20227;-66
2021/01/21 02:55:56;;;;;;;3.35;3.05;;;;;;;;;;5093829;28;20207;-65
2021/01/21 02:58:28;;;;;;;4.13;3.40;;;;;;;;;;5093876;28;20231;-65
2021/01/21 03:00:55;;;;;;;3.03;2.70;;;;;;;;;;5094172;28;20176;-65
2021/01/21 03:03:27;;;;;;;3.75;2.85;;;;;;;;;;5094003;28;20191;-65
2021/01/21 03:05:57;;;;;;;10.65;3.47;;;;;;;;;;5093673;28;20201;-65
2021/01/21 03:08:24;;;;;;;3.05;2.85;;;;;;;;;;5094302;28;20549;-65
2021/01/21 03:10:51;;;;;;;4.10;3.10;;;;;;;;;;5094242;28;20199;-65
2021/01/21 03:13:18;;;;;;;4.80;2.65;;;;;;;;;;5094136;28;20202;-65
2021/01/21 03:15:44;;;;;;;3.72;3.30;;;;;;;;;;5092166;28;20199;-66
2021/01/21 03:18:11;;;;;;;5.05;2.50;;;;;;;;;;5094826;28;20226;-66
2021/01/21 03:20:39;;;;;;;4.00;3.20;;;;;;;;;;5094238;28;20188;-66
2021/01/21 03:23:08;;;;;;;3.25;2.95;;;;;;;;;;5093985;28;20206;-66
2021/01/21 03:25:38;;;;;;;6.88;3.33;;;;;;;;;;5093751;28;20195;-66
2021/01/21 03:28:05;;;;;;;3.47;3.05;;;;;;;;;;5093863;28;20214;-66
2021/01/21 03:30:31;;;;;;;4.13;3.55;;;;;;;;;;5093903;28;20199;-66
2021/01/21 03:32:59;;;;;;;4.25;3.30;;;;;;;;;;5093964;28;20242;-66
2021/01/21 03:35:26;;;;;;;3.55;2.75;;;;;;;;;;5075539;28;20207;-66
2021/01/21 03:37:53;;;;;;;5.65;3.00;;;;;;;;;;5094041;28;20646;-66
2021/01/21 03:40:20;;;;;;;5.68;3.05;;;;;;;;;;5076216;28;20211;-66
2021/01/21 03:42:46;;;;;;;4.85;3.35;;;;;;;;;;5093677;28;20187;-66
2021/01/21 03:45:13;;;;;;;2.50;2.30;;;;;;;;;;5091959;28;20200;-66
2021/01/21 03:47:41;;;;;;;6.80;3.15;;;;;;;;;;5093386;28;20208;-66
2021/01/21 03:50:08;;;;;;;5.78;2.72;;;;;;;;;;5093439;28;20195;-66
2021/01/21 03:52:36;;;;;;;2.70;2.45;;;;;;;;;;5093455;28;20231;-66
2021/01/21 03:55:02;;;;;;;3.40;3.05;;;;;;;;;;5093748;28;20202;-66
2021/01/21 03:57:29;;;;;;;3.35;2.70;;;;;;;;;;5093628;28;20187;-65
2021/01/21 03:59:56;;;;;;;3.10;2.80;;;;;;;;;;5093687;28;20288;-65
2021/01/21 04:02:24;;;;;;;3.22;2.60;;;;;;;;;;5092748;28;20203;-65
2021/01/21 04:04:51;;;;;;;3.30;2.70;;;;;;;;;;5093823;28;20191;-65
2021/01/21 04:07:17;;;;;;;2.65;2.42;;;;;;;;;;5093577;28;20268;-66
2021/01/21 04:09:45;;;;;;;3.40;2.63;;;;;;;;;;5075611;28;20226;-66
2021/01/21 04:12:12;;;;;;;3.55;2.78;;;;;;;;;;5093360;28;20195;-66
2021/01/21 04:14:38;;;;;;;4.68;2.92;;;;;;;;;;5092242;28;20283;-66
2021/01/21 04:17:05;;;;;;;2.35;2.17;;;;;;;;;;5093926;28;20662;-66
2021/01/21 04:19:31;;;;;;;2.53;2.33;;;;;;;;;;5096834;28;20215;-66
2021/01/21 04:21:59;;;;;;;2.83;2.53;;;;;;;;;;5096847;28;20276;-66
2021/01/21 04:24:26;;;;;;;2.67;2.42;;;;;;;;;;5078303;28;20215;-66
2021/01/21 04:26:52;;;;;;;3.03;2.83;;;;;;;;;;5096783;28;20531;-66
2021/01/21 04:29:19;;;;;;;3.30;2.47;;;;;;;;;;5097045;28;20199;-66
2021/01/21 04:31:45;;;;;;;2.42;2.20;;;;;;;;;;5096812;28;20594;-66
2021/01/21 04:34:12;;;;;;;2.65;2.40;;;;;;;;;;5096970;28;20206;-66
2021/01/21 04:36:39;;;;;;;3.60;2.10;;;;;;;;;;5097105;28;20192;-66
2021/01/21 04:39:05;;;;;;;3.83;2.25;;;;;;;;;;5097460;28;20310;-66
2021/01/21 04:41:33;;;;;;;2.70;2.03;;;;;;;;;;5096550;28;20192;-66
2021/01/21 04:44:00;;;;;;;3.58;2.53;;;;;;;;;;5095746;28;20305;-66
2021/01/21 04:46:28;;;;;;;2.22;2.03;;;;;;;;;;5096071;28;20555;-66
2021/01/21 04:48:55;;;;;;;4.22;1.90;;;;;;;;;;5096542;28;20674;-66
2021/01/21 04:51:22;;;;;;;2.38;1.98;;;;;;;;;;5096482;28;20199;-66
2021/01/21 04:53:53;;;;;;;2.35;1.85;;;;;;;;;;5096446;28;20615;-66
2021/01/21 04:56:25;;;;;;;2.40;1.67;;;;;;;;;;5096458;28;20179;-66
2021/01/21 04:58:55;;;;;;;2.10;1.48;;;;;;;;;;5095763;28;20227;-66
2021/01/21 05:01:24;;;;;;;2.42;1.90;;;;;;;;;;5078667;28;20175;-66
2021/01/21 05:03:54;;;;;;;2.03;1.90;;;;;;;;;;5095813;28;20226;-66
2021/01/21 05:06:23;;;;;;;3.50;2.13;;;;;;;;;;5078053;28;20222;-66
2021/01/21 05:08:51;;;;;;;6.78;1.95;;;;;;;;;;5095892;28;20558;-66
2021/01/21 05:11:18;;;;;;;2.67;2.22;;;;;;;;;;5095168;28;20210;-66
2021/01/21 05:13:44;;;;;;;4.38;1.70;;;;;;;;;;5095211;28;20195;-66
2021/01/21 05:16:11;;;;;;;3.33;2.15;;;;;;;;;;5094827;28;20202;-66
2021/01/21 05:18:41;;;;;;;4.07;2.10;;;;;;;;;;5095543;28;20219;-65
2021/01/21 05:21:08;;;;;;;3.90;2.25;;;;;;;;;;5096097;28;20275;-65
2021/01/21 05:23:36;;;;;;;2.00;1.80;;;;;;;;;;5096038;28;20585;-65
2021/01/21 05:26:02;;;;;;;2.80;1.77;;;;;;;;;;5096353;28;20187;-65
2021/01/21 05:28:29;;;;;;;3.08;1.63;;;;;;;;;;5095614;28;20191;-65
2021/01/21 05:31:00;;;;;;;2.75;2.10;;;;;;;;;;5095719;28;20191;-65
2021/01/21 05:33:28;;;;;;;2.13;2.00;;;;;;;;;;5095083;28;20214;-65
2021/01/21 05:35:58;;;;;;;2.65;2.15;;;;;;;;;;5095320;28;20256;-65
2021/01/21 05:38:24;;;;;;;2.25;1.60;;;;;;;;;;5094572;28;20225;-65
2021/01/21 05:40:55;;;;;;;4.93;2.20;;;;;;;;;;5078354;28;20187;-65
2021/01/21 05:43:22;;;;;;;2.10;1.90;;;;;;;;;;5095123;28;20204;-65
2021/01/21 05:45:51;;;;;;;2.10;1.90;;;;;;;;;;5093588;28;20210;-65
2021/01/21 05:48:23;;;;;;;2.70;1.65;;;;;;;;;;5095028;28;20242;-65
2021/01/21 05:50:51;;;;;;;1.92;1.40;;;;;;;;;;5095368;28;20191;-65
2021/01/21 05:53:18;;;;;;;3.20;1.88;;;;;;;;;;5093971;28;20227;-65
2021/01/21 05:55:48;;;;;;;1.40;1.30;;;;;;;;;;5095311;28;20760;-65
2021/01/21 05:58:17;;;;;;;1.20;1.10;;;;;;;;;;5094379;28;20199;-65
2021/01/21 06:00:44;;;;;;;2.22;1.20;;;;;;;;;;5095151;28;20217;-65
2021/01/21 06:03:11;;;;;;;1.90;1.40;;;;;;;;;;5094918;28;20194;-65
2021/01/21 06:05:38;;;;;;;3.55;1.17;;;;;;;;;;5095867;28;20203;-65
2021/01/21 06:08:05;;;;;;;1.40;0.98;;;;;;;;;;5094763;28;20199;-65
2021/01/21 06:10:34;;;;;;;2.38;1.60;;;;;;;;;;5094484;28;20195;-65
2021/01/21 06:13:05;;;;;;;1.35;1.25;;;;;;;;;;5094454;28;20285;-65
2021/01/21 06:15:33;;;;;;;1.50;1.00;;;;;;;;;;5093346;28;20199;-65
2021/01/21 06:18:01;;;;;;;5.18;1.52;;;;;;;;;;5094603;28;20646;-65
2021/01/21 06:20:28;;;;;;;1.20;0.90;;;;;;;;;;5094580;28;20188;-65
2021/01/21 06:22:55;;;;;;;1.55;1.42;;;;;;;;;;5094856;28;20203;-65
2021/01/21 06:25:22;;;;;;;2.35;1.30;;;;;;;;;;5094590;28;20191;-65
2021/01/21 06:27:50;;;;;;;1.30;1.20;;;;;;;;;;5094499;28;20187;-65
2021/01/21 06:30:21;;;;;;;2.88;1.20;;;;;;;;;;5094500;28;20192;-65
2021/01/21 06:32:50;;;;;;;1.52;1.30;;;;;;;;;;5095155;28;20199;-66
2021/01/21 06:35:20;;;;;;;1.85;1.10;;;;;;;;;;5094281;28;20253;-65
2021/01/21 06:37:52;;;;;;;2.75;1.20;;;;;;;;;;5094541;28;20198;-65
2021/01/21 06:40:20;;;;;;;1.70;1.10;;;;;;;;;;5093971;28;20691;-65
2021/01/21 06:43:16;;;;;;;1.13;1.00;;;;;;;;;;5094578;28;20171;-65
2021/01/21 06:45:43;;;;;;;1.20;1.10;;;;;;;;;;5088481;28;20203;-65
2021/01/21 06:48:10;;;;;;;1.30;1.20;;;;;;;;;;5093825;28;20211;-65
2021/01/21 06:50:38;;;;;;;1.80;1.40;;;;;;;;;;5094138;28;20187;-66
2021/01/21 06:53:07;;;;;;;1.40;1.10;;;;;;;;;;5094186;28;20643;-66
2021/01/21 06:55:35;;;;;;;1.48;1.38;;;;;;;;;;5094129;28;20188;-65
2021/01/21 06:58:05;;;;;;;2.70;1.02;;;;;;;;;;5093898;28;20207;-65
2021/01/21 07:00:40;;;;;;;3.88;1.25;;;;;;;;;;5094240;28;20226;-66
2021/01/21 07:03:08;;;;;;;3.97;0.95;;;;;;;;;;5094348;28;20553;-65
2021/01/21 07:05:35;;;;;;;1.30;1.20;;;;;;;;;;5094183;28;20202;-65
2021/01/21 07:08:02;;;;;;;1.38;1.27;;;;;;;;;;5093204;28;20205;-65
2021/01/21 07:10:31;;;;;;;4.60;1.30;;;;;;;;;;5094053;28;20213;-66
2021/01/21 07:12:58;;;;;;;2.92;1.10;;;;;;;;;;5094095;28;20191;-66
2021/01/21 07:15:43;;;;;;;1.90;1.00;;;;;;;;;;5091723;28;20199;-66
2021/01/21 07:18:30;;;;;;;1.15;0.80;;;;;;;;;;5093206;28;20191;-65
2021/01/21 07:21:00;;;;;;;1.23;0.90;;;;;;;;;;5093934;28;20286;-66
2021/01/21 07:23:37;;;;;;;1.98;0.80;;;;;;;;;;5093647;28;20207;-65
2021/01/21 07:26:21;;;;;;;1.70;1.05;;;;;;;;;;5093645;28;20195;-65
2021/01/21 07:29:10;;;;;;;1.60;1.10;;;;;;;;;;5093332;28;20550;-65
2021/01/21 07:31:51;;;;;;;0.90;0.73;;;;;;;;;;5082378;28;20203;-66
2021/01/21 07:34:23;;;;;;;0.70;0.70;;;;;;;;;;5094181;28;20195;-65
2021/01/21 07:37:10;;;;;;;0.77;0.77;;;;;;;;;;5094357;28;20195;-66
2021/01/21 07:39:52;;;;;;;2.97;1.10;;;;;;;;;;5093927;28;20196;-65
2021/01/21 07:42:19;;;;;;;1.20;1.10;;;;;;;;;;5093560;28;20203;-65
2021/01/21 07:44:53;;;;;;;1.30;1.20;;;;;;;;;;5092098;28;20196;-66
2021/01/21 07:47:29;;;;;;;0.80;0.80;;;;;;;;;;5092697;28;20207;-66
2021/01/21 07:50:18;;;;;;;2.50;1.25;;;;;;;;;;5093296;28;21143;-66
2021/01/21 07:52:49;;;;;;;1.05;0.93;;;;;;;;;;5094833;28;20284;-66
2021/01/21 07:55:24;;;;;;;1.23;1.05;;;;;;;;;;5097415;28;20209;-66
2021/01/21 07:57:52;;;;;;;0.90;0.88;;;;;;;;;;5097631;28;20207;-66
2021/01/21 08:00:22;;;;;;;0.80;0.80;;;;;;;;;;5097688;28;20577;-66
2021/01/21 08:02:52;;;;;;;4.50;1.00;;;;;;;;;;5097498;28;20635;-65
2021/01/21 08:05:19;;;;;;;1.13;1.02;;;;;;;;;;5097229;28;20558;-65
2021/01/21 08:07:48;;;;;;;2.00;0.70;;;;;;;;;;5097726;28;20234;-65
2021/01/21 08:10:21;;;;;;;0.70;0.70;;;;;;;;;;5097742;28;20191;-65
2021/01/21 08:12:55;;;;;;;0.80;0.80;;;;;;;;;;5096521;28;20218;-65
2021/01/21 08:15:22;;;;;;;2.10;1.85;;;;;;;;;;5094584;28;20203;-66
2021/01/21 08:17:50;;;;;;;1.15;0.90;;;;;;;;;;5097419;28;20203;-65
2021/01/21 08:20:17;;;;;;;0.98;0.80;;;;;;;;;;5097148;28;20603;-66
2021/01/21 08:23:03;;;;;;;0.70;0.70;;;;;;;;;;5097173;28;20647;-66
2021/01/21 08:25:39;;;;;;;1.05;0.95;;;;;;;;;;5096584;28;20209;-66
2021/01/21 08:28:09;;;;;;;8.77;0.90;;;;;;;;;;5096886;28;20191;-66
2021/01/21 08:30:36;;;;;;;0.82;0.82;;;;;;;;;;5096990;28;20195;-66
2021/01/21 08:33:02;;;;;;;1.85;1.00;;;;;;;;;;5096952;28;20206;-66
2021/01/21 08:35:35;;;;;;;1.23;0.80;;;;;;;;;;5096706;28;20284;-66
2021/01/21 08:38:03;;;;;;;0.90;0.70;;;;;;;;;;5096082;28;20229;-66
2021/01/21 08:40:29;;;;;;;1.77;0.80;;;;;;;;;;5097023;28;20222;-66
2021/01/21 08:42:56;;;;;;;0.90;0.90;;;;;;;;;;5096444;28;20196;-66
2021/01/21 08:45:27;;;;;;;1.10;1.00;;;;;;;;;;5094884;28;20203;-66
2021/01/21 08:47:53;;;;;;;0.88;0.68;;;;;;;;;;5095783;28;20272;-65
2021/01/21 08:50:21;;;;;;;0.90;0.80;;;;;;;;;;5096457;28;20200;-66
2021/01/21 08:53:01;;;;;;;0.60;0.60;;;;;;;;;;5096072;28;20231;-66
2021/01/21 08:55:47;;;;;;;1.00;0.77;;;;;;;;;;5095275;28;20203;-66
2021/01/21 08:58:27;;;;;;;1.20;0.90;;;;;;;;;;5096401;28;20183;-66
2021/01/21 09:01:03;;;;;;;1.05;0.60;;;;;;;;;;5077785;28;20670;-65
2021/01/21 09:03:35;;;;;;;0.88;0.88;;;;;;;;;;5095266;28;20195;-65
2021/01/21 09:06:04;;;;;;;0.75;0.75;;;;;;;;;;5095798;28;20176;-65
2021/01/21 09:08:32;;;;;;;1.10;0.85;;;;;;;;;;5095830;28;20211;-65
2021/01/21 09:10:59;;;;;;;1.73;0.80;;;;;;;;;;5095223;28;20233;-65
2021/01/21 09:13:29;;;;;;;1.17;1.10;;;;;;;;;;5095701;28;20191;-65
2021/01/21 09:16:02;;;;;;;0.75;0.75;;;;;;;;;;5080888;28;20199;-65
2021/01/21 09:18:45;;;;;;;0.60;0.60;;;;;;;;;;5095634;28;20194;-65
2021/01/21 09:21:13;;;;;;;2.03;0.70;;;;;;;;;;5095794;28;20274;-65
2021/01/21 09:23:39;;;;;;;0.82;0.80;;;;;;;;;;5095574;28;20572;-65
2021/01/21 09:26:12;;;;;;;0.80;0.80;;;;;;;;;;5095610;28;20275;-65
2021/01/21 09:28:56;;;;;;;0.70;0.70;;;;;;;;;;5095804;28;20647;-65
2021/01/21 09:31:23;;;;;;;0.73;0.73;;;;;;;;;;5094952;28;20195;-66
2021/01/21 09:33:51;;;;;;;1.15;1.00;;;;;;;;;;5094815;28;20195;-65
2021/01/21 09:36:18;;;;;;;1.38;0.95;;;;;;;;;;5095330;28;20226;-65
2021/01/21 09:38:49;;;;;;;1.10;1.00;;;;;;;;;;5094963;28;20659;-65
2021/01/21 09:41:16;;;;;;;1.17;0.98;;;;;;;;;;5095298;28;20206;-66
2021/01/21 09:43:44;;;;;;;1.35;0.90;;;;;;;;;;5094450;28;20203;-65
2021/01/21 09:46:13;;;;;;;1.38;1.27;;;;;;;;;;5093980;28;20207;-66
2021/01/21 09:48:41;;;;;;;5.55;1.00;;;;;;;;;;5095120;28;20209;-66
2021/01/21 09:51:10;;;;;;;1.00;0.90;;;;;;;;;;5095115;28;20222;-66
2021/01/21 09:53:37;;;;;;;2.78;1.15;;;;;;;;;;5095009;28;20228;-65
2021/01/21 09:56:08;;;;;;;1.42;1.33;;;;;;;;;;5095968;28;20282;-65
2021/01/21 09:58:34;;;;;;;2.90;1.10;;;;;;;;;;5095265;28;20615;-65
2021/01/21 10:01:01;;;;;;;1.38;1.27;;;;;;;;;;5094427;28;20724;-66
2021/01/21 10:03:27;;;;;;;1.10;0.88;;;;;;;;;;5076339;28;20195;-66
2021/01/21 10:05:57;;;;;;;1.55;1.30;;;;;;;;;;5095273;28;20215;-66
2021/01/21 10:08:27;;;;;;;1.42;1.25;;;;;;;;;;5094356;28;20196;-65
2021/01/21 10:10:55;;;;;;;1.30;1.02;;;;;;;;;;5076862;28;20216;-65
2021/01/21 10:13:22;;;;;;;5.05;1.20;;;;;;;;;;5094523;28;20207;-65
2021/01/21 10:15:48;;;;;;;1.45;1.35;;;;;;;;;;5092238;28;20199;-65
2021/01/21 10:18:15;;;;;;;4.65;1.00;;;;;;;;;;5094443;28;20206;-66
2021/01/21 10:20:42;;;;;;;1.80;1.60;;;;;;;;;;5094506;28;20659;-65
2021/01/21 10:23:08;;;;;;;1.08;0.90;;;;;;;;;;5094289;28;20194;-65
2021/01/21 10:25:41;;;;;;;4.20;1.10;;;;;;;;;;5094353;28;20167;-65
2021/01/21 10:28:11;;;;;;;1.13;0.95;;;;;;;;;;5094620;28;20289;-65
2021/01/21 10:30:38;;;;;;;1.10;1.00;;;;;;;;;;5093636;28;20222;-66
2021/01/21 10:33:04;;;;;;;1.15;1.05;;;;;;;;;;5094326;28;20213;-65
2021/01/21 10:35:31;;;;;;;1.80;0.80;;;;;;;;;;5094414;28;20621;-65
2021/01/21 10:38:00;;;;;;;1.33;1.17;;;;;;;;;;5076559;28;20643;-65
2021/01/21 10:40:26;;;;;;;1.25;1.10;;;;;;;;;;5094400;28;20690;-65
2021/01/21 10:42:58;;;;;;;1.00;0.90;;;;;;;;;;5094210;28;20182;-65
2021/01/21 10:45:25;;;;;;;0.88;0.88;;;;;;;;;;5092529;28;20203;-65
2021/01/21 10:47:51;;;;;;;1.35;1.25;;;;;;;;;;5094169;28;20221;-65
2021/01/21 10:50:18;;;;;;;1.92;0.90;;;;;;;;;;5094204;28;20205;-65
2021/01/21 10:52:47;;;;;;;1.17;1.08;;;;;;;;;;5093997;28;20219;-65
2021/01/21 10:55:13;;;;;;;1.92;0.90;;;;;;;;;;5093895;28;20236;-66
2021/01/21 10:57:40;;;;;;;0.98;0.90;;;;;;;;;;5094265;28;20224;-66
2021/01/21 11:00:07;;;;;;;0.80;0.73;;;;;;;;;;5093043;28;20231;-67
2021/01/21 11:02:33;;;;;;;1.00;0.90;;;;;;;;;;5093964;28;20563;-66
2021/01/21 11:05:00;;;;;;;0.90;0.90;;;;;;;;;;5093716;28;20191;-66
2021/01/21 11:07:28;;;;;;;2.85;1.33;;;;;;;;;;5093739;28;20198;-66
2021/01/21 11:09:55;;;;;;;3.85;2.05;;;;;;;;;;5093580;28;20294;-66
2021/01/21 11:12:21;;;;;;;3.72;1.48;;;;;;;;;;5092192;28;20763;-66
2021/01/21 11:14:52;;;;;;;7.97;1.50;;;;;;;;;;5092097;28;20689;-66
2021/01/21 11:17:22;;;;;;;1.48;1.38;;;;;;;;;;5093535;28;20259;-66
2021/01/21 11:19:49;;;;;;;1.60;1.50;;;;;;;;;;5074998;28;20218;-65
2021/01/21 11:22:20;;;;;;;7.93;2.00;;;;;;;;;;5076232;28;20184;-64
2021/01/21 11:24:47;;;;;;;1.65;1.55;;;;;;;;;;5075141;28;20601;-64
2021/01/21 11:27:13;;;;;;;2.95;1.70;;;;;;;;;;5095677;28;20202;-64
2021/01/21 11:29:40;;;;;;;4.63;1.92;;;;;;;;;;5097442;28;20202;-65
2021/01/21 11:32:06;;;;;;;1.60;1.50;;;;;;;;;;5096248;28;20545;-65
2021/01/21 11:34:33;;;;;;;2.00;1.90;;;;;;;;;;5097406;28;20249;-66
2021/01/21 11:37:04;;;;;;;2.13;2.03;;;;;;;;;;5097653;28;20172;-67
2021/01/21 11:39:31;;;;;;;4.60;2.33;;;;;;;;;;5080208;28;20229;-66
2021/01/21 11:41:57;;;;;;;2.75;1.58;;;;;;;;;;5097689;28;20274;-66
2021/01/21 11:44:24;;;;;;;1.67;1.50;;;;;;;;;;5097107;28;20195;-65
2021/01/21 11:46:54;;;;;;;1.60;1.40;;;;;;;;;;5097099;28;20203;-65
2021/01/21 11:49:21;;;;;;;1.00;1.00;;;;;;;;;;5096754;28;20233;-65
2021/01/21 11:51:47;;;;;;;1.42;1.20;;;;;;;;;;5097382;28;20606;-64
2021/01/21 11:54:15;;;;;;;1.13;1.02;;;;;;;;;;5097507;28;20228;-65
2021/01/21 11:56:45;;;;;;;1.05;0.95;;;;;;;;;;5096347;28;20278;-65
2021/01/21 11:59:12;;;;;;;1.00;1.00;;;;;;;;;;5096719;28;20274;-65
2021/01/21 12:01:39;;;;;;;2.83;1.60;;;;;;;;;;5096878;28;20203;-65
2021/01/21 12:04:05;;;;;;;1.42;1.33;;;;;;;;;;5096531;28;20269;-64
2021/01/21 12:06:35;;;;;;;1.10;0.80;;;;;;;;;;5096709;28;20191;-65
2021/01/21 12:09:05;;;;;;;3.47;0.80;;;;;;;;;;5096606;28;20232;-65
2021/01/21 12:11:32;;;;;;;0.77;0.77;;;;;;;;;;5081797;28;20218;-65
2021/01/21 12:14:00;;;;;;;0.70;0.70;;;;;;;;;;5095370;28;20259;-66
2021/01/21 12:16:27;;;;;;;1.92;1.50;;;;;;;;;;5095315;28;20294;-67
2021/01/21 12:18:54;;;;;;;0.85;0.85;;;;;;;;;;5096266;28;20290;-65
2021/01/21 12:21:23;;;;;;;2.38;1.27;;;;;;;;;;5096262;28;20221;-65
2021/01/21 12:23:52;;;;;;;4.32;1.63;;;;;;;;;;5078741;28;20180;-65
2021/01/21 12:26:20;;;;;;;1.45;0.80;;;;;;;;;;5095290;28;20200;-66
2021/01/21 12:28:47;;;;;;;1.08;1.00;;;;;;;;;;5096177;28;20191;-66
2021/01/21 12:31:15;;;;;;;1.60;0.70;;;;;;;;;;5096038;28;20195;-66
2021/01/21 12:33:42;;;;;;;4.43;0.98;;;;;;;;;;5096094;28;20191;-66
2021/01/21 12:36:11;;;;;;;4.60;0.80;;;;;;;;;;5095795;28;20710;-66
2021/01/21 12:38:38;;;;;;;1.33;0.70;;;;;;;;;;5094551;28;20236;-66
2021/01/21 12:41:04;;;;;;;2.63;0.82;;;;;;;;;;5095940;28;20297;-66
2021/01/21 12:43:33;;;;;;;3.40;1.00;;;;;;;;;;5095670;28;20669;-66
2021/01/21 12:46:01;;;;;;;2.13;1.00;;;;;;;;;;5093952;28;20191;-66
2021/01/21 12:48:28;;;;;;;2.28;1.30;;;;;;;;;;5095520;28;20595;-66
2021/01/21 12:50:56;;;;;;;2.10;0.90;;;;;;;;;;5095805;28;20226;-65
2021/01/21 12:53:23;;;;;;;1.83;1.02;;;;;;;;;;5095425;28;20247;-65
2021/01/21 12:55:50;;;;;;;3.22;1.23;;;;;;;;;;5096069;28;20282;-65
2021/01/21 12:58:21;;;;;;;2.53;0.90;;;;;;;;;;5095436;28;20183;-65
2021/01/21 13:00:50;;;;;;;4.72;1.20;;;;;;;;;;5095266;28;20215;-66
2021/01/21 13:03:18;;;;;;;7.25;1.35;;;;;;;;;;5095442;28;20240;-66
2021/01/21 13:05:45;;;;;;;2.35;0.90;;;;;;;;;;5094856;28;20657;-66
2021/01/21 13:08:11;;;;;;;2.15;1.02;;;;;;;;;;5092979;28;20211;-65
2021/01/21 13:10:39;;;;;;;2.03;1.00;;;;;;;;;;5095734;28;20207;-65
2021/01/21 13:13:06;;;;;;;2.88;0.90;;;;;;;;;;5095986;28;20274;-64
2021/01/21 13:15:33;;;;;;;1.35;0.95;;;;;;;;;;5094459;28;20200;-65
2021/01/21 13:18:00;;;;;;;1.35;1.00;;;;;;;;;;5095979;28;20205;-65
2021/01/21 13:20:27;;;;;;;3.13;1.30;;;;;;;;;;5095584;28;20226;-64
2021/01/21 13:22:55;;;;;;;1.35;1.08;;;;;;;;;;5095720;28;20237;-64
2021/01/21 13:25:22;;;;;;;1.58;0.95;;;;;;;;;;5095578;28;20183;-64
2021/01/21 13:27:49;;;;;;;2.58;0.70;;;;;;;;;;5096127;28;20207;-63
2021/01/21 13:30:16;;;;;;;2.30;0.90;;;;;;;;;;5095173;28;20206;-63
2021/01/21 13:32:42;;;;;;;3.03;0.98;;;;;;;;;;5095636;28;20673;-63
2021/01/21 13:35:09;;;;;;;1.88;0.90;;;;;;;;;;5095637;28;20214;-65
2021/01/21 13:37:36;;;;;;;4.70;1.00;;;;;;;;;;5095355;28;20665;-64
2021/01/21 13:40:03;;;;;;;2.47;1.13;;;;;;;;;;5095207;28;20305;-63
2021/01/21 13:42:36;;;;;;;1.45;0.95;;;;;;;;;;5095380;28;20272;-64
2021/01/21 13:45:03;;;;;;;2.45;1.13;;;;;;;;;;5093550;28;20199;-64
2021/01/21 13:47:30;;;;;;;1.13;1.02;;;;;;;;;;5094629;28;20242;-65
2021/01/21 13:49:58;;;;;;;1.00;0.80;;;;;;;;;;5096046;28;20203;-65
2021/01/21 13:52:28;;;;;;;1.63;0.90;;;;;;;;;;5094916;28;20245;-65
2021/01/21 13:54:55;;;;;;;2.28;1.20;;;;;;;;;;5094420;28;20276;-65
2021/01/21 13:57:21;;;;;;;14.07;7.82;;;;;;;;;;5095204;28;20199;-64
2021/01/21 13:59:48;;;;;;;28.80;15.80;;;;;;;;;;5095212;28;20222;-65
2021/01/21 14:02:17;;;;;;;17.60;8.32;;;;;;;;;;5095036;28;20195;-64
2021/01/21 14:04:47;;;;;;;6.88;3.90;;;;;;;;;;5094902;28;20195;-64
2021/01/21 14:07:15;;;;;;;10.15;6.07;;;;;;;;;;5094656;28;20203;-64
2021/01/21 14:09:44;;;;;;;3.60;3.13;;;;;;;;;;5094625;28;20680;-65
2021/01/21 14:12:12;;;;;;;14.90;10.70;;;;;;;;;;5094784;28;20226;-64
2021/01/21 14:14:38;;;;;;;16.35;11.45;;;;;;;;;;5092546;28;20629;-64
2021/01/21 14:17:08;;;;;;;8.40;7.10;;;;;;;;;;5094326;28;20566;-64
2021/01/21 14:19:39;;;;;;;15.63;10.45;;;;;;;;;;5094367;28;20184;-63
2021/01/21 14:22:09;;;;;;;2.97;1.60;;;;;;;;;;5094445;28;20595;-63
2021/01/21 14:24:36;;;;;;;5.85;2.70;;;;;;;;;;5094171;28;20245;-65
2021/01/21 14:27:04;;;;;;;5.13;1.63;;;;;;;;;;5094250;28;20213;-63
2021/01/21 14:29:33;;;;;;;5.57;1.75;;;;;;;;;;5094769;28;20204;-64
2021/01/21 14:31:59;;;;;;;3.33;1.50;;;;;;;;;;5093433;28;20199;-64
2021/01/21 14:34:26;;;;;;;1.95;1.10;;;;;;;;;;5076270;28;20214;-64
2021/01/21 14:36:52;;;;;;;5.47;1.70;;;;;;;;;;5093552;28;20294;-64
2021/01/21 14:39:22;;;;;;;2.25;1.60;;;;;;;;;;5094138;28;20187;-64
2021/01/21 14:41:48;;;;;;;3.03;1.20;;;;;;;;;;5094170;28;20595;-65
2021/01/21 14:44:16;;;;;;;1.60;1.25;;;;;;;;;;5092741;28;20213;-64
2021/01/21 14:46:44;;;;;;;3.53;1.83;;;;;;;;;;5093484;28;20203;-64
2021/01/21 14:49:11;;;;;;;2.30;1.40;;;;;;;;;;5093618;28;20219;-65
2021/01/21 14:51:38;;;;;;;5.45;1.20;;;;;;;;;;5093413;28;20257;-64
2021/01/21 14:54:04;;;;;;;6.03;1.88;;;;;;;;;;5093324;28;20269;-64